sensor_id;sensor_type;location;lat;lon;timestamp;P1;durP1;ratioP1;P2;durP2;ratioP2
13805;SDS011;6974;53.606;9.872;2022-08-19T00:00:48;8.40;;;7.60;;
13805;SDS011;6974;53.606;9.872;2022-08-19T00:03:15;8.20;;;7.50;;
13805;SDS011;6974;53.606;9.872;2022-08-19T00:05:43;9.97;;;8.77;;
13805;SDS011;6974;53.606;9.872;2022-08-19T00:08:10;11.13;;;10.00;;
13805;SDS011;6974;53.606;9.872;2022-08-19T00:10:37;10.33;;;9.43;;
13805;SDS011;6974;53.606;9.872;2022-08-19T00:13:04;10.17;;;9.20;;
13805;SDS011;6974;53.606;9.872;2022-08-19T00:15:31;11.37;;;10.33;;
13805;SDS011;6974;53.606;9.872;2022-08-19T00:17:58;13.70;;;11.57;;
13805;SDS011;6974;53.606;9.872;2022-08-19T00:20:25;12.87;;;11.57;;
13805;SDS011;6974;53.606;9.872;2022-08-19T00:22:54;15.13;;;13.53;;
13805;SDS011;6974;53.606;9.872;2022-08-19T00:25:20;19.97;;;17.87;;
13805;SDS011;6974;53.606;9.872;2022-08-19T00:27:48;17.93;;;16.10;;
13805;SDS011;6974;53.606;9.872;2022-08-19T00:30:15;19.33;;;17.27;;
13805;SDS011;6974;53.606;9.872;2022-08-19T00:32:42;21.43;;;19.13;;
13805;SDS011;6974;53.606;9.872;2022-08-19T00:35:09;22.83;;;20.47;;
13805;SDS011;6974;53.606;9.872;2022-08-19T00:37:36;25.07;;;21.23;;
13805;SDS011;6974;53.606;9.872;2022-08-19T00:40:10;24.23;;;21.60;;
13805;SDS011;6974;53.606;9.872;2022-08-19T00:42:38;26.17;;;22.70;;
13805;SDS011;6974;53.606;9.872;2022-08-19T00:45:09;27.63;;;22.37;;
13805;SDS011;6974;53.606;9.872;2022-08-19T00:47:38;24.10;;;20.40;;
13805;SDS011;6974;53.606;9.872;2022-08-19T00:50:05;22.10;;;19.80;;
13805;SDS011;6974;53.606;9.872;2022-08-19T00:52:35;23.87;;;20.47;;
13805;SDS011;6974;53.606;9.872;2022-08-19T00:55:12;21.07;;;18.83;;
13805;SDS011;6974;53.606;9.872;2022-08-19T00:57:42;20.67;;;18.67;;
13805;SDS011;6974;53.606;9.872;2022-08-19T01:00:13;21.73;;;18.90;;
13805;SDS011;6974;53.606;9.872;2022-08-19T01:02:42;19.87;;;17.77;;
13805;SDS011;6974;53.606;9.872;2022-08-19T01:05:11;20.77;;;18.20;;
13805;SDS011;6974;53.606;9.872;2022-08-19T01:07:40;19.17;;;17.20;;
13805;SDS011;6974;53.606;9.872;2022-08-19T01:10:09;18.63;;;16.63;;
13805;SDS011;6974;53.606;9.872;2022-08-19T01:12:40;20.60;;;18.30;;
13805;SDS011;6974;53.606;9.872;2022-08-19T01:15:09;20.77;;;17.70;;
13805;SDS011;6974;53.606;9.872;2022-08-19T01:17:38;21.43;;;19.23;;
13805;SDS011;6974;53.606;9.872;2022-08-19T01:20:08;20.23;;;18.13;;
13805;SDS011;6974;53.606;9.872;2022-08-19T01:22:41;20.70;;;17.87;;
13805;SDS011;6974;53.606;9.872;2022-08-19T01:25:12;22.47;;;18.40;;
13805;SDS011;6974;53.606;9.872;2022-08-19T01:27:39;21.37;;;17.03;;
13805;SDS011;6974;53.606;9.872;2022-08-19T01:30:08;22.60;;;17.93;;
13805;SDS011;6974;53.606;9.872;2022-08-19T01:32:38;22.77;;;18.60;;
13805;SDS011;6974;53.606;9.872;2022-08-19T01:35:05;25.27;;;20.20;;
13805;SDS011;6974;53.606;9.872;2022-08-19T01:37:42;23.50;;;19.43;;
13805;SDS011;6974;53.606;9.872;2022-08-19T01:40:10;23.30;;;19.50;;
13805;SDS011;6974;53.606;9.872;2022-08-19T01:42:37;27.93;;;22.13;;
13805;SDS011;6974;53.606;9.872;2022-08-19T01:45:04;25.63;;;20.93;;
13805;SDS011;6974;53.606;9.872;2022-08-19T01:47:33;24.87;;;19.20;;
13805;SDS011;6974;53.606;9.872;2022-08-19T01:50:01;25.53;;;19.83;;
13805;SDS011;6974;53.606;9.872;2022-08-19T01:52:27;24.63;;;19.17;;
13805;SDS011;6974;53.606;9.872;2022-08-19T01:54:56;23.47;;;19.23;;
13805;SDS011;6974;53.606;9.872;2022-08-19T01:57:22;27.90;;;20.03;;
13805;SDS011;6974;53.606;9.872;2022-08-19T01:59:49;28.37;;;21.30;;
13805;SDS011;6974;53.606;9.872;2022-08-19T02:02:16;24.97;;;18.63;;
13805;SDS011;6974;53.606;9.872;2022-08-19T02:04:43;29.23;;;21.23;;
13805;SDS011;6974;53.606;9.872;2022-08-19T02:07:10;27.93;;;21.23;;
13805;SDS011;6974;53.606;9.872;2022-08-19T02:09:37;28.23;;;20.43;;
13805;SDS011;6974;53.606;9.872;2022-08-19T02:12:06;22.93;;;20.10;;
13805;SDS011;6974;53.606;9.872;2022-08-19T02:14:33;29.47;;;21.43;;
13805;SDS011;6974;53.606;9.872;2022-08-19T02:17:00;30.17;;;21.03;;
13805;SDS011;6974;53.606;9.872;2022-08-19T02:19:27;30.70;;;21.33;;
13805;SDS011;6974;53.606;9.872;2022-08-19T02:21:57;30.57;;;21.97;;
13805;SDS011;6974;53.606;9.872;2022-08-19T02:24:24;30.03;;;22.63;;
13805;SDS011;6974;53.606;9.872;2022-08-19T02:26:51;36.47;;;24.43;;
13805;SDS011;6974;53.606;9.872;2022-08-19T02:29:19;34.17;;;25.07;;
13805;SDS011;6974;53.606;9.872;2022-08-19T02:31:46;33.40;;;23.97;;
13805;SDS011;6974;53.606;9.872;2022-08-19T02:34:13;39.83;;;26.60;;
13805;SDS011;6974;53.606;9.872;2022-08-19T02:36:40;49.50;;;30.23;;
13805;SDS011;6974;53.606;9.872;2022-08-19T02:39:07;43.50;;;28.83;;
13805;SDS011;6974;53.606;9.872;2022-08-19T02:41:34;43.33;;;27.20;;
13805;SDS011;6974;53.606;9.872;2022-08-19T02:44:02;44.20;;;29.20;;
13805;SDS011;6974;53.606;9.872;2022-08-19T02:46:31;46.73;;;31.13;;
13805;SDS011;6974;53.606;9.872;2022-08-19T02:49:00;51.97;;;31.27;;
13805;SDS011;6974;53.606;9.872;2022-08-19T02:51:31;53.43;;;32.67;;
13805;SDS011;6974;53.606;9.872;2022-08-19T02:54:00;44.00;;;29.50;;
13805;SDS011;6974;53.606;9.872;2022-08-19T02:56:28;46.33;;;29.47;;
13805;SDS011;6974;53.606;9.872;2022-08-19T02:58:56;52.67;;;31.03;;
13805;SDS011;6974;53.606;9.872;2022-08-19T03:01:24;53.03;;;31.33;;
13805;SDS011;6974;53.606;9.872;2022-08-19T03:03:55;50.47;;;31.60;;
13805;SDS011;6974;53.606;9.872;2022-08-19T03:06:24;49.77;;;30.63;;
13805;SDS011;6974;53.606;9.872;2022-08-19T03:08:51;52.07;;;31.30;;
13805;SDS011;6974;53.606;9.872;2022-08-19T03:11:19;55.13;;;32.20;;
13805;SDS011;6974;53.606;9.872;2022-08-19T03:13:48;54.93;;;33.37;;
13805;SDS011;6974;53.606;9.872;2022-08-19T03:16:15;56.57;;;31.50;;
13805;SDS011;6974;53.606;9.872;2022-08-19T03:18:43;49.47;;;29.63;;
13805;SDS011;6974;53.606;9.872;2022-08-19T03:21:15;56.53;;;31.57;;
13805;SDS011;6974;53.606;9.872;2022-08-19T03:23:43;45.90;;;29.13;;
13805;SDS011;6974;53.606;9.872;2022-08-19T03:26:11;42.10;;;28.40;;
13805;SDS011;6974;53.606;9.872;2022-08-19T03:28:39;45.87;;;28.97;;
13805;SDS011;6974;53.606;9.872;2022-08-19T03:31:08;44.80;;;27.83;;
13805;SDS011;6974;53.606;9.872;2022-08-19T03:33:36;44.40;;;27.23;;
13805;SDS011;6974;53.606;9.872;2022-08-19T03:36:06;42.00;;;26.33;;
13805;SDS011;6974;53.606;9.872;2022-08-19T03:38:36;43.60;;;26.77;;
13805;SDS011;6974;53.606;9.872;2022-08-19T03:41:04;45.77;;;29.10;;
13805;SDS011;6974;53.606;9.872;2022-08-19T03:43:33;45.30;;;27.17;;
13805;SDS011;6974;53.606;9.872;2022-08-19T03:46:05;42.97;;;26.83;;
13805;SDS011;6974;53.606;9.872;2022-08-19T03:48:34;42.53;;;27.63;;
13805;SDS011;6974;53.606;9.872;2022-08-19T03:51:01;43.37;;;26.27;;
13805;SDS011;6974;53.606;9.872;2022-08-19T03:53:29;50.30;;;30.63;;
13805;SDS011;6974;53.606;9.872;2022-08-19T03:55:58;47.47;;;28.00;;
13805;SDS011;6974;53.606;9.872;2022-08-19T03:58:26;49.13;;;30.17;;
13805;SDS011;6974;53.606;9.872;2022-08-19T04:00:54;47.43;;;29.93;;
13805;SDS011;6974;53.606;9.872;2022-08-19T04:03:22;46.63;;;30.63;;
13805;SDS011;6974;53.606;9.872;2022-08-19T04:05:49;49.67;;;32.40;;
13805;SDS011;6974;53.606;9.872;2022-08-19T04:08:16;49.30;;;34.50;;
13805;SDS011;6974;53.606;9.872;2022-08-19T04:10:45;41.77;;;30.97;;
13805;SDS011;6974;53.606;9.872;2022-08-19T04:13:14;46.07;;;33.10;;
13805;SDS011;6974;53.606;9.872;2022-08-19T04:15:42;45.07;;;31.77;;
13805;SDS011;6974;53.606;9.872;2022-08-19T04:18:11;45.87;;;33.53;;
13805;SDS011;6974;53.606;9.872;2022-08-19T04:20:40;40.70;;;28.53;;
13805;SDS011;6974;53.606;9.872;2022-08-19T04:23:08;41.80;;;29.53;;
13805;SDS011;6974;53.606;9.872;2022-08-19T04:25:36;40.17;;;29.13;;
13805;SDS011;6974;53.606;9.872;2022-08-19T04:28:04;34.60;;;27.93;;
13805;SDS011;6974;53.606;9.872;2022-08-19T04:30:37;28.83;;;22.90;;
13805;SDS011;6974;53.606;9.872;2022-08-19T04:33:05;26.03;;;21.73;;
13805;SDS011;6974;53.606;9.872;2022-08-19T04:35:34;26.67;;;20.83;;
13805;SDS011;6974;53.606;9.872;2022-08-19T04:38:02;23.07;;;19.90;;
13805;SDS011;6974;53.606;9.872;2022-08-19T04:40:29;26.70;;;20.47;;
13805;SDS011;6974;53.606;9.872;2022-08-19T04:43:14;24.63;;;18.70;;
13805;SDS011;6974;53.606;9.872;2022-08-19T04:45:42;21.00;;;18.17;;
13805;SDS011;6974;53.606;9.872;2022-08-19T04:48:10;20.03;;;17.93;;
13805;SDS011;6974;53.606;9.872;2022-08-19T04:50:39;24.03;;;19.17;;
13805;SDS011;6974;53.606;9.872;2022-08-19T04:53:07;20.27;;;18.03;;
13805;SDS011;6974;53.606;9.872;2022-08-19T04:55:37;21.57;;;19.27;;
13805;SDS011;6974;53.606;9.872;2022-08-19T04:58:05;23.53;;;18.43;;
13805;SDS011;6974;53.606;9.872;2022-08-19T05:00:32;23.50;;;18.33;;
13805;SDS011;6974;53.606;9.872;2022-08-19T05:03:00;20.10;;;15.83;;
13805;SDS011;6974;53.606;9.872;2022-08-19T05:05:27;23.50;;;18.80;;
13805;SDS011;6974;53.606;9.872;2022-08-19T05:07:56;20.33;;;17.37;;
13805;SDS011;6974;53.606;9.872;2022-08-19T05:10:23;22.70;;;17.47;;
13805;SDS011;6974;53.606;9.872;2022-08-19T05:12:49;18.03;;;16.17;;
13805;SDS011;6974;53.606;9.872;2022-08-19T05:15:16;15.97;;;13.47;;
13805;SDS011;6974;53.606;9.872;2022-08-19T05:17:43;17.87;;;14.93;;
13805;SDS011;6974;53.606;9.872;2022-08-19T05:20:32;22.07;;;15.50;;
13805;SDS011;6974;53.606;9.872;2022-08-19T05:23:30;18.23;;;13.97;;
13805;SDS011;6974;53.606;9.872;2022-08-19T05:25:57;19.13;;;14.77;;
13805;SDS011;6974;53.606;9.872;2022-08-19T05:28:24;17.23;;;14.70;;
13805;SDS011;6974;53.606;9.872;2022-08-19T05:30:51;18.03;;;14.90;;
13805;SDS011;6974;53.606;9.872;2022-08-19T05:33:20;16.43;;;14.03;;
13805;SDS011;6974;53.606;9.872;2022-08-19T05:35:50;17.70;;;14.07;;
13805;SDS011;6974;53.606;9.872;2022-08-19T05:38:17;21.70;;;14.67;;
13805;SDS011;6974;53.606;9.872;2022-08-19T05:40:45;19.00;;;15.00;;
13805;SDS011;6974;53.606;9.872;2022-08-19T05:43:13;17.03;;;13.70;;
13805;SDS011;6974;53.606;9.872;2022-08-19T05:45:41;16.23;;;13.43;;
13805;SDS011;6974;53.606;9.872;2022-08-19T05:48:08;20.67;;;13.90;;
13805;SDS011;6974;53.606;9.872;2022-08-19T05:50:37;17.37;;;14.73;;
13805;SDS011;6974;53.606;9.872;2022-08-19T05:53:05;15.83;;;14.17;;
13805;SDS011;6974;53.606;9.872;2022-08-19T05:55:33;17.77;;;14.03;;
13805;SDS011;6974;53.606;9.872;2022-08-19T05:58:03;13.77;;;12.43;;
13805;SDS011;6974;53.606;9.872;2022-08-19T06:00:32;19.03;;;13.47;;
13805;SDS011;6974;53.606;9.872;2022-08-19T06:02:59;17.97;;;13.47;;
13805;SDS011;6974;53.606;9.872;2022-08-19T06:05:28;14.73;;;12.60;;
13805;SDS011;6974;53.606;9.872;2022-08-19T06:07:55;13.07;;;11.77;;
13805;SDS011;6974;53.606;9.872;2022-08-19T06:10:25;12.97;;;11.67;;
13805;SDS011;6974;53.606;9.872;2022-08-19T06:12:52;16.27;;;13.87;;
13805;SDS011;6974;53.606;9.872;2022-08-19T06:15:19;15.47;;;12.90;;
13805;SDS011;6974;53.606;9.872;2022-08-19T06:17:47;15.97;;;13.17;;
13805;SDS011;6974;53.606;9.872;2022-08-19T06:20:14;14.80;;;13.30;;
13805;SDS011;6974;53.606;9.872;2022-08-19T06:22:43;15.23;;;13.47;;
13805;SDS011;6974;53.606;9.872;2022-08-19T06:25:13;15.33;;;12.70;;
13805;SDS011;6974;53.606;9.872;2022-08-19T06:27:42;14.47;;;12.07;;
13805;SDS011;6974;53.606;9.872;2022-08-19T06:30:10;16.67;;;15.03;;
13805;SDS011;6974;53.606;9.872;2022-08-19T06:32:38;14.43;;;13.03;;
13805;SDS011;6974;53.606;9.872;2022-08-19T06:35:06;14.63;;;11.87;;
13805;SDS011;6974;53.606;9.872;2022-08-19T06:37:33;14.07;;;12.37;;
13805;SDS011;6974;53.606;9.872;2022-08-19T06:40:00;15.37;;;12.63;;
13805;SDS011;6974;53.606;9.872;2022-08-19T06:42:27;13.80;;;11.97;;
13805;SDS011;6974;53.606;9.872;2022-08-19T06:44:55;16.07;;;12.67;;
13805;SDS011;6974;53.606;9.872;2022-08-19T06:47:23;17.97;;;12.43;;
13805;SDS011;6974;53.606;9.872;2022-08-19T06:49:52;14.30;;;12.00;;
13805;SDS011;6974;53.606;9.872;2022-08-19T06:52:20;18.07;;;12.47;;
13805;SDS011;6974;53.606;9.872;2022-08-19T06:54:48;12.57;;;11.27;;
13805;SDS011;6974;53.606;9.872;2022-08-19T06:57:15;12.00;;;10.80;;
13805;SDS011;6974;53.606;9.872;2022-08-19T06:59:42;11.50;;;9.83;;
13805;SDS011;6974;53.606;9.872;2022-08-19T07:02:10;12.30;;;9.83;;
13805;SDS011;6974;53.606;9.872;2022-08-19T07:04:37;10.23;;;9.23;;
13805;SDS011;6974;53.606;9.872;2022-08-19T07:07:05;9.50;;;8.57;;
13805;SDS011;6974;53.606;9.872;2022-08-19T07:09:37;9.27;;;8.37;;
13805;SDS011;6974;53.606;9.872;2022-08-19T07:12:06;8.90;;;8.00;;
13805;SDS011;6974;53.606;9.872;2022-08-19T07:14:35;13.50;;;9.17;;
13805;SDS011;6974;53.606;9.872;2022-08-19T07:17:04;9.80;;;8.90;;
13805;SDS011;6974;53.606;9.872;2022-08-19T07:19:34;11.67;;;8.37;;
13805;SDS011;6974;53.606;9.872;2022-08-19T07:22:01;9.33;;;7.63;;
13805;SDS011;6974;53.606;9.872;2022-08-19T07:24:29;11.17;;;9.03;;
13805;SDS011;6974;53.606;9.872;2022-08-19T07:26:58;12.40;;;9.63;;
13805;SDS011;6974;53.606;9.872;2022-08-19T07:29:28;9.70;;;8.67;;
13805;SDS011;6974;53.606;9.872;2022-08-19T07:31:58;9.60;;;8.70;;
13805;SDS011;6974;53.606;9.872;2022-08-19T07:34:26;9.70;;;8.70;;
13805;SDS011;6974;53.606;9.872;2022-08-19T07:36:55;9.30;;;8.27;;
13805;SDS011;6974;53.606;9.872;2022-08-19T07:39:24;13.87;;;8.90;;
13805;SDS011;6974;53.606;9.872;2022-08-19T07:41:53;11.00;;;7.73;;
13805;SDS011;6974;53.606;9.872;2022-08-19T07:44:21;11.47;;;8.03;;
13805;SDS011;6974;53.606;9.872;2022-08-19T07:46:49;9.17;;;7.57;;
13805;SDS011;6974;53.606;9.872;2022-08-19T07:49:19;8.70;;;7.77;;
13805;SDS011;6974;53.606;9.872;2022-08-19T07:51:47;7.40;;;6.70;;
13805;SDS011;6974;53.606;9.872;2022-08-19T07:54:16;9.83;;;8.70;;
13805;SDS011;6974;53.606;9.872;2022-08-19T07:56:45;8.93;;;8.00;;
13805;SDS011;6974;53.606;9.872;2022-08-19T07:59:12;10.20;;;8.10;;
13805;SDS011;6974;53.606;9.872;2022-08-19T08:01:39;9.47;;;8.47;;
13805;SDS011;6974;53.606;9.872;2022-08-19T08:04:06;9.73;;;7.90;;
13805;SDS011;6974;53.606;9.872;2022-08-19T08:06:50;12.63;;;10.23;;
13805;SDS011;6974;53.606;9.872;2022-08-19T08:09:37;14.57;;;11.30;;
13805;SDS011;6974;53.606;9.872;2022-08-19T08:12:06;12.33;;;10.10;;
13805;SDS011;6974;53.606;9.872;2022-08-19T08:14:36;14.83;;;11.97;;
13805;SDS011;6974;53.606;9.872;2022-08-19T08:17:05;13.50;;;10.50;;
13805;SDS011;6974;53.606;9.872;2022-08-19T08:19:33;12.60;;;10.90;;
13805;SDS011;6974;53.606;9.872;2022-08-19T08:22:01;14.07;;;12.13;;
13805;SDS011;6974;53.606;9.872;2022-08-19T08:24:30;12.90;;;9.80;;
13805;SDS011;6974;53.606;9.872;2022-08-19T08:27:00;12.43;;;11.13;;
13805;SDS011;6974;53.606;9.872;2022-08-19T08:29:27;12.83;;;10.20;;
13805;SDS011;6974;53.606;9.872;2022-08-19T08:31:56;11.13;;;10.03;;
13805;SDS011;6974;53.606;9.872;2022-08-19T08:34:23;12.47;;;11.17;;
13805;SDS011;6974;53.606;9.872;2022-08-19T08:36:50;11.80;;;10.60;;
13805;SDS011;6974;53.606;9.872;2022-08-19T08:39:17;11.20;;;10.13;;
13805;SDS011;6974;53.606;9.872;2022-08-19T08:41:47;10.23;;;9.17;;
13805;SDS011;6974;53.606;9.872;2022-08-19T08:44:22;11.67;;;10.47;;
13805;SDS011;6974;53.606;9.872;2022-08-19T08:46:55;12.67;;;10.33;;
13805;SDS011;6974;53.606;9.872;2022-08-19T08:49:26;11.97;;;10.77;;
13805;SDS011;6974;53.606;9.872;2022-08-19T08:52:00;13.17;;;10.67;;
13805;SDS011;6974;53.606;9.872;2022-08-19T08:54:32;11.53;;;9.70;;
13805;SDS011;6974;53.606;9.872;2022-08-19T08:57:02;10.97;;;9.50;;
13805;SDS011;6974;53.606;9.872;2022-08-19T08:59:35;9.57;;;8.67;;
13805;SDS011;6974;53.606;9.872;2022-08-19T09:02:06;13.17;;;10.43;;
13805;SDS011;6974;53.606;9.872;2022-08-19T09:04:34;10.90;;;9.80;;
13805;SDS011;6974;53.606;9.872;2022-08-19T09:07:04;11.13;;;9.93;;
13805;SDS011;6974;53.606;9.872;2022-08-19T09:09:45;12.20;;;10.20;;
13805;SDS011;6974;53.606;9.872;2022-08-19T09:12:16;10.50;;;9.50;;
13805;SDS011;6974;53.606;9.872;2022-08-19T09:14:53;11.13;;;10.03;;
13805;SDS011;6974;53.606;9.872;2022-08-19T09:17:24;14.60;;;11.67;;
13805;SDS011;6974;53.606;9.872;2022-08-19T09:19:56;13.90;;;11.33;;
13805;SDS011;6974;53.606;9.872;2022-08-19T09:22:29;11.17;;;9.87;;
13805;SDS011;6974;53.606;9.872;2022-08-19T09:24:56;12.27;;;10.40;;
13805;SDS011;6974;53.606;9.872;2022-08-19T09:27:23;18.87;;;12.10;;
13805;SDS011;6974;53.606;9.872;2022-08-19T09:29:53;13.13;;;11.93;;
13805;SDS011;6974;53.606;9.872;2022-08-19T09:32:20;14.00;;;12.60;;
13805;SDS011;6974;53.606;9.872;2022-08-19T09:34:48;16.70;;;12.37;;
13805;SDS011;6974;53.606;9.872;2022-08-19T09:37:18;12.50;;;11.23;;
13805;SDS011;6974;53.606;9.872;2022-08-19T09:39:44;16.83;;;12.70;;
13805;SDS011;6974;53.606;9.872;2022-08-19T09:42:11;15.83;;;12.50;;
13805;SDS011;6974;53.606;9.872;2022-08-19T09:44:39;17.13;;;14.33;;
13805;SDS011;6974;53.606;9.872;2022-08-19T09:47:08;19.40;;;16.20;;
13805;SDS011;6974;53.606;9.872;2022-08-19T09:49:36;20.23;;;16.30;;
13805;SDS011;6974;53.606;9.872;2022-08-19T09:52:04;20.77;;;18.57;;
13805;SDS011;6974;53.606;9.872;2022-08-19T09:54:32;18.20;;;16.20;;
13805;SDS011;6974;53.606;9.872;2022-08-19T09:57:00;17.90;;;16.07;;
13805;SDS011;6974;53.606;9.872;2022-08-19T09:59:27;22.23;;;18.50;;
13805;SDS011;6974;53.606;9.872;2022-08-19T10:01:54;20.93;;;18.37;;
13805;SDS011;6974;53.606;9.872;2022-08-19T10:04:22;20.20;;;17.87;;
13805;SDS011;6974;53.606;9.872;2022-08-19T10:07:09;20.50;;;17.10;;
13805;SDS011;6974;53.606;9.872;2022-08-19T10:09:36;18.87;;;16.00;;
13805;SDS011;6974;53.606;9.872;2022-08-19T10:12:05;19.17;;;16.50;;
13805;SDS011;6974;53.606;9.872;2022-08-19T10:14:32;20.10;;;18.00;;
13805;SDS011;6974;53.606;9.872;2022-08-19T10:17:00;19.97;;;17.80;;
13805;SDS011;6974;53.606;9.872;2022-08-19T10:19:30;18.73;;;16.67;;
13805;SDS011;6974;53.606;9.872;2022-08-19T10:22:02;22.37;;;19.30;;
13805;SDS011;6974;53.606;9.872;2022-08-19T10:24:30;21.80;;;18.80;;
13805;SDS011;6974;53.606;9.872;2022-08-19T10:26:58;24.33;;;18.73;;
13805;SDS011;6974;53.606;9.872;2022-08-19T10:29:25;20.93;;;18.17;;
13805;SDS011;6974;53.606;9.872;2022-08-19T10:31:53;20.80;;;18.63;;
13805;SDS011;6974;53.606;9.872;2022-08-19T10:34:21;20.37;;;18.20;;
13805;SDS011;6974;53.606;9.872;2022-08-19T10:36:49;20.53;;;18.37;;
13805;SDS011;6974;53.606;9.872;2022-08-19T10:39:16;19.83;;;17.77;;
13805;SDS011;6974;53.606;9.872;2022-08-19T10:41:43;20.77;;;18.37;;
13805;SDS011;6974;53.606;9.872;2022-08-19T10:44:10;21.47;;;18.67;;
13805;SDS011;6974;53.606;9.872;2022-08-19T10:46:38;22.03;;;19.20;;
13805;SDS011;6974;53.606;9.872;2022-08-19T10:49:07;20.60;;;17.23;;
13805;SDS011;6974;53.606;9.872;2022-08-19T10:51:36;22.57;;;19.30;;
13805;SDS011;6974;53.606;9.872;2022-08-19T10:54:23;22.60;;;18.27;;
13805;SDS011;6974;53.606;9.872;2022-08-19T10:57:10;21.60;;;18.93;;
13805;SDS011;6974;53.606;9.872;2022-08-19T10:59:36;24.17;;;19.27;;
13805;SDS011;6974;53.606;9.872;2022-08-19T11:02:04;18.73;;;16.17;;
13805;SDS011;6974;53.606;9.872;2022-08-19T11:04:34;18.83;;;15.57;;
13805;SDS011;6974;53.606;9.872;2022-08-19T11:07:02;21.37;;;17.80;;
13805;SDS011;6974;53.606;9.872;2022-08-19T11:09:31;20.97;;;18.50;;
13805;SDS011;6974;53.606;9.872;2022-08-19T11:11:58;21.67;;;18.10;;
13805;SDS011;6974;53.606;9.872;2022-08-19T11:14:24;18.47;;;16.20;;
13805;SDS011;6974;53.606;9.872;2022-08-19T11:16:55;18.93;;;16.93;;
13805;SDS011;6974;53.606;9.872;2022-08-19T11:19:23;19.63;;;17.60;;
13805;SDS011;6974;53.606;9.872;2022-08-19T11:21:50;19.77;;;17.50;;
13805;SDS011;6974;53.606;9.872;2022-08-19T11:24:20;17.67;;;15.80;;
13805;SDS011;6974;53.606;9.872;2022-08-19T11:26:51;16.97;;;15.17;;
13805;SDS011;6974;53.606;9.872;2022-08-19T11:29:22;18.87;;;16.63;;
13805;SDS011;6974;53.606;9.872;2022-08-19T11:31:52;16.90;;;15.03;;
13805;SDS011;6974;53.606;9.872;2022-08-19T11:34:20;16.90;;;15.20;;
13805;SDS011;6974;53.606;9.872;2022-08-19T11:36:49;16.73;;;15.00;;
13805;SDS011;6974;53.606;9.872;2022-08-19T11:39:19;18.17;;;16.17;;
13805;SDS011;6974;53.606;9.872;2022-08-19T11:41:47;17.67;;;15.87;;
13805;SDS011;6974;53.606;9.872;2022-08-19T11:44:15;17.70;;;15.90;;
13805;SDS011;6974;53.606;9.872;2022-08-19T11:46:42;16.87;;;14.87;;
13805;SDS011;6974;53.606;9.872;2022-08-19T11:49:11;18.83;;;16.63;;
13805;SDS011;6974;53.606;9.872;2022-08-19T11:51:38;16.93;;;15.17;;
13805;SDS011;6974;53.606;9.872;2022-08-19T11:54:07;16.70;;;15.17;;
13805;SDS011;6974;53.606;9.872;2022-08-19T11:56:34;15.57;;;14.07;;
13805;SDS011;6974;53.606;9.872;2022-08-19T11:59:02;16.03;;;14.43;;
13805;SDS011;6974;53.606;9.872;2022-08-19T12:01:31;13.83;;;12.53;;
13805;SDS011;6974;53.606;9.872;2022-08-19T12:03:58;15.33;;;13.93;;
13805;SDS011;6974;53.606;9.872;2022-08-19T12:06:26;16.10;;;14.50;;
13805;SDS011;6974;53.606;9.872;2022-08-19T12:08:54;14.57;;;13.17;;
13805;SDS011;6974;53.606;9.872;2022-08-19T12:11:22;16.93;;;15.33;;
13805;SDS011;6974;53.606;9.872;2022-08-19T12:13:49;20.97;;;16.40;;
13805;SDS011;6974;53.606;9.872;2022-08-19T12:16:17;17.03;;;15.23;;
13805;SDS011;6974;53.606;9.872;2022-08-19T12:18:47;16.27;;;14.73;;
13805;SDS011;6974;53.606;9.872;2022-08-19T12:21:16;17.67;;;15.93;;
13805;SDS011;6974;53.606;9.872;2022-08-19T12:23:46;15.53;;;14.03;;
13805;SDS011;6974;53.606;9.872;2022-08-19T12:26:13;18.03;;;16.40;;
13805;SDS011;6974;53.606;9.872;2022-08-19T12:28:40;16.80;;;15.20;;
13805;SDS011;6974;53.606;9.872;2022-08-19T12:31:08;15.50;;;13.93;;
13805;SDS011;6974;53.606;9.872;2022-08-19T12:33:36;16.37;;;14.83;;
13805;SDS011;6974;53.606;9.872;2022-08-19T12:36:06;15.00;;;13.40;;
13805;SDS011;6974;53.606;9.872;2022-08-19T12:38:34;13.90;;;12.47;;
13805;SDS011;6974;53.606;9.872;2022-08-19T12:41:02;16.13;;;14.70;;
13805;SDS011;6974;53.606;9.872;2022-08-19T12:43:31;13.40;;;12.07;;
13805;SDS011;6974;53.606;9.872;2022-08-19T12:45:59;15.47;;;14.07;;
13805;SDS011;6974;53.606;9.872;2022-08-19T12:48:26;14.83;;;13.43;;
13805;SDS011;6974;53.606;9.872;2022-08-19T12:50:54;15.80;;;14.40;;
13805;SDS011;6974;53.606;9.872;2022-08-19T12:53:22;16.73;;;15.03;;
13805;SDS011;6974;53.606;9.872;2022-08-19T12:55:54;16.40;;;14.90;;
13805;SDS011;6974;53.606;9.872;2022-08-19T12:58:22;13.60;;;12.33;;
13805;SDS011;6974;53.606;9.872;2022-08-19T13:00:49;14.57;;;13.23;;
13805;SDS011;6974;53.606;9.872;2022-08-19T13:03:16;13.47;;;12.27;;
13805;SDS011;6974;53.606;9.872;2022-08-19T13:05:42;14.33;;;12.93;;
13805;SDS011;6974;53.606;9.872;2022-08-19T13:08:09;15.33;;;14.03;;
13805;SDS011;6974;53.606;9.872;2022-08-19T13:10:38;14.80;;;13.37;;
13805;SDS011;6974;53.606;9.872;2022-08-19T13:13:05;16.17;;;14.67;;
13805;SDS011;6974;53.606;9.872;2022-08-19T13:15:34;14.43;;;13.13;;
13805;SDS011;6974;53.606;9.872;2022-08-19T13:18:02;16.73;;;15.17;;
13805;SDS011;6974;53.606;9.872;2022-08-19T13:20:29;14.93;;;13.73;;
13805;SDS011;6974;53.606;9.872;2022-08-19T13:22:56;14.17;;;12.97;;
13805;SDS011;6974;53.606;9.872;2022-08-19T13:25:23;17.33;;;15.57;;
13805;SDS011;6974;53.606;9.872;2022-08-19T13:27:52;16.80;;;15.40;;
13805;SDS011;6974;53.606;9.872;2022-08-19T13:30:20;14.17;;;12.70;;
13805;SDS011;6974;53.606;9.872;2022-08-19T13:33:05;15.47;;;13.97;;
13805;SDS011;6974;53.606;9.872;2022-08-19T13:35:43;15.47;;;14.07;;
13805;SDS011;6974;53.606;9.872;2022-08-19T13:38:14;16.23;;;14.57;;
13805;SDS011;6974;53.606;9.872;2022-08-19T13:40:42;15.20;;;13.70;;
13805;SDS011;6974;53.606;9.872;2022-08-19T13:43:10;16.27;;;14.77;;
13805;SDS011;6974;53.606;9.872;2022-08-19T13:45:37;16.83;;;15.23;;
13805;SDS011;6974;53.606;9.872;2022-08-19T13:48:05;18.37;;;16.57;;
13805;SDS011;6974;53.606;9.872;2022-08-19T13:50:34;17.00;;;15.40;;
13805;SDS011;6974;53.606;9.872;2022-08-19T13:53:04;17.97;;;16.37;;
13805;SDS011;6974;53.606;9.872;2022-08-19T13:55:31;17.67;;;16.03;;
13805;SDS011;6974;53.606;9.872;2022-08-19T13:57:59;17.17;;;15.57;;
13805;SDS011;6974;53.606;9.872;2022-08-19T14:00:33;18.30;;;16.60;;
13805;SDS011;6974;53.606;9.872;2022-08-19T14:03:01;17.37;;;15.77;;
13805;SDS011;6974;53.606;9.872;2022-08-19T14:05:29;18.33;;;16.73;;
13805;SDS011;6974;53.606;9.872;2022-08-19T14:07:56;18.67;;;16.70;;
13805;SDS011;6974;53.606;9.872;2022-08-19T14:10:24;19.63;;;17.57;;
13805;SDS011;6974;53.606;9.872;2022-08-19T14:12:53;18.23;;;16.63;;
13805;SDS011;6974;53.606;9.872;2022-08-19T14:15:23;18.10;;;16.43;;
13805;SDS011;6974;53.606;9.872;2022-08-19T14:17:51;18.30;;;16.43;;
13805;SDS011;6974;53.606;9.872;2022-08-19T14:20:19;15.33;;;13.93;;
13805;SDS011;6974;53.606;9.872;2022-08-19T14:22:48;18.37;;;16.60;;
13805;SDS011;6974;53.606;9.872;2022-08-19T14:25:15;15.63;;;14.20;;
13805;SDS011;6974;53.606;9.872;2022-08-19T14:27:46;14.80;;;13.53;;
13805;SDS011;6974;53.606;9.872;2022-08-19T14:30:14;15.07;;;13.63;;
13805;SDS011;6974;53.606;9.872;2022-08-19T14:32:43;15.40;;;14.00;;
13805;SDS011;6974;53.606;9.872;2022-08-19T14:35:12;15.80;;;14.30;;
13805;SDS011;6974;53.606;9.872;2022-08-19T14:37:43;16.17;;;14.67;;
13805;SDS011;6974;53.606;9.872;2022-08-19T14:40:12;14.30;;;12.93;;
13805;SDS011;6974;53.606;9.872;2022-08-19T14:42:42;17.07;;;15.67;;
13805;SDS011;6974;53.606;9.872;2022-08-19T14:45:10;15.00;;;13.60;;